Time;durP1;ratioP1;P1;durP2;ratioP2;P2;SDS_P1;SDS_P2;PMS_P1;PMS_P2;Temp;Humidity;BMP_temperature;BMP_pressure;BME280_temperature;BME280_humidity;BME280_pressure;Samples;Min_cycle;Max_cycle;Signal;HPM_P1;HPM_P2
2022/12/12 00:00:39;;;;;;;28.20;14.18;;;2.00;99.90;;;;;;5026463;28;20060;-77
2022/12/12 00:03:05;;;;;;;27.60;13.50;;;1.80;99.90;;;;;;5008350;28;20041;-77
2022/12/12 00:05:30;;;;;;;26.17;13.63;;;1.00;99.90;;;;;;5022433;28;20188;-77
2022/12/12 00:07:56;;;;;;;25.92;12.82;;;0.80;99.90;;;;;;5023896;28;20084;-76
2022/12/12 00:10:22;;;;;;;26.73;13.38;;;0.20;99.90;;;;;;4986110;28;20550;-77
2022/12/12 00:12:47;;;;;;;27.55;14.63;;;1.50;99.90;;;;;;5010202;28;20038;-76
2022/12/12 00:15:13;;;;;;;29.75;15.15;;;2.10;99.90;;;;;;5009188;28;20046;-77
2022/12/12 00:17:39;;;;;;;25.85;13.93;;;0.80;99.90;;;;;;5026466;28;20055;-76
2022/12/12 00:20:05;;;;;;;37.33;14.93;;;0.80;99.90;;;;;;5025301;28;20514;-77
2022/12/12 00:22:31;;;;;;;27.10;13.57;;;0.80;99.90;;;;;;5028472;28;20053;-76
2022/12/12 00:25:00;;;;;;;26.83;14.52;;;1.50;99.90;;;;;;5026396;28;20086;-77
2022/12/12 00:27:26;;;;;;;26.75;14.38;;;1.20;99.90;;;;;;4993703;28;20518;-77
2022/12/12 00:29:53;;;;;;;24.80;13.38;;;2.30;99.90;;;;;;5006207;28;20034;-76
2022/12/12 00:32:19;;;;;;;28.85;14.93;;;0.80;99.90;;;;;;5007023;28;20054;-77
2022/12/12 00:34:48;;;;;;;27.10;13.50;;;0.70;99.90;;;;;;5027072;28;20047;-76
2022/12/12 00:37:14;;;;;;;28.48;13.77;;;2.60;99.90;;;;;;5025306;28;20037;-77
2022/12/12 00:39:44;;;;;;;30.52;14.15;;;1.60;99.90;;;;;;4984785;28;20049;-75
2022/12/12 00:42:15;;;;;;;29.65;14.90;;;0.80;99.90;;;;;;5027595;28;20071;-77
2022/12/12 00:44:41;;;;;;;30.17;15.20;;;1.40;99.90;;;;;;4993878;28;20045;-77
2022/12/12 00:47:07;;;;;;;29.52;14.73;;;0.70;99.90;;;;;;5024286;28;20495;-77
2022/12/12 00:49:33;;;;;;;29.35;15.00;;;0.80;99.90;;;;;;5026488;28;20491;-77
2022/12/12 00:51:59;;;;;;;31.08;15.60;;;0.80;99.90;;;;;;5024124;28;20052;-77
2022/12/12 00:54:24;;;;;;;33.85;15.52;;;2.10;99.90;;;;;;5026667;28;20494;-76
2022/12/12 00:56:53;;;;;;;29.23;14.60;;;0.80;99.90;;;;;;5008832;28;20059;-77
2022/12/12 00:59:19;;;;;;;30.55;14.85;;;0.80;99.90;;;;;;5009803;28;20127;-78
2022/12/12 01:01:45;;;;;;;30.77;15.98;;;0.70;99.90;;;;;;5024943;28;20037;-76
2022/12/12 01:04:13;;;;;;;29.38;14.98;;;0.80;99.90;;;;;;5029116;28;20387;-76
2022/12/12 01:06:39;;;;;;;30.35;15.10;;;1.10;99.90;;;;;;5024408;28;20072;-76
2022/12/12 01:09:05;;;;;;;34.42;15.60;;;0.80;99.90;;;;;;5005485;28;20033;-77
2022/12/12 01:11:33;;;;;;;31.65;15.07;;;0.80;99.90;;;;;;5007036;28;20045;-76
2022/12/12 01:13:59;;;;;;;31.33;15.07;;;0.80;99.90;;;;;;5008066;28;20040;-77
2022/12/12 01:16:25;;;;;;;28.48;15.25;;;1.20;99.90;;;;;;5022445;28;20069;-76
2022/12/12 01:18:51;;;;;;;30.95;13.98;;;0.80;99.90;;;;;;4989437;28;20151;-76
2022/12/12 01:21:19;;;;;;;32.90;14.93;;;2.10;99.90;;;;;;5022698;28;20831;-77
2022/12/12 01:23:45;;;;;;;29.00;14.68;;;0.80;99.90;;;;;;5020888;28;20052;-77
2022/12/12 01:26:23;;;;;;;29.38;14.73;;;1.10;99.90;;;;;;5023558;28;20198;-76
2022/12/12 01:28:55;;;;;;;28.05;14.65;;;2.00;99.90;;;;;;5003193;28;20101;-77
2022/12/12 01:31:21;;;;;;;31.77;14.48;;;0.80;99.90;;;;;;5007532;28;20025;-77
2022/12/12 01:33:47;;;;;;;31.20;16.05;;;0.80;99.90;;;;;;5021120;28;20517;-76
2022/12/12 01:36:15;;;;;;;30.25;15.48;;;0.40;99.90;;;;;;4990425;28;20418;-77
2022/12/12 01:38:43;;;;;;;31.27;15.48;;;1.30;99.90;;;;;;5023630;28;20159;-77
2022/12/12 01:41:09;;;;;;;29.75;15.00;;;0.80;99.90;;;;;;5007927;28;20092;-76
2022/12/12 01:43:35;;;;;;;31.77;15.35;;;0.80;99.90;;;;;;5005279;28;20471;-76
2022/12/12 01:46:01;;;;;;;29.10;14.35;;;0.80;99.90;;;;;;5022520;28;20053;-76
2022/12/12 01:48:55;;;;;;;29.73;15.02;;;1.30;99.90;;;;;;5023958;28;20041;-77
2022/12/12 01:51:26;;;;;;;33.33;15.15;;;1.20;99.90;;;;;;4991831;28;20537;-76
2022/12/12 01:53:57;;;;;;;31.48;15.15;;;0.70;99.90;;;;;;5021770;28;20511;-77
2022/12/12 01:56:24;;;;;;;28.90;14.18;;;0.70;99.90;;;;;;5009122;28;20380;-78
2022/12/12 01:58:52;;;;;;;31.73;14.20;;;0.70;99.90;;;;;;5022789;28;20045;-76
2022/12/12 02:01:19;;;;;;;29.83;14.60;;;0.50;99.90;;;;;;5021432;28;20040;-77
2022/12/12 02:03:47;;;;;;;29.10;15.05;;;0.80;99.90;;;;;;5032205;28;20264;-76
2022/12/12 02:06:17;;;;;;;28.00;14.52;;;0.70;99.90;;;;;;5023233;28;20044;-77
2022/12/12 02:08:45;;;;;;;27.13;13.80;;;1.70;99.90;;;;;;5021671;28;20041;-76
2022/12/12 02:11:11;;;;;;;28.90;14.63;;;0.80;99.90;;;;;;5022778;28;20040;-77
2022/12/12 02:13:37;;;;;;;27.42;14.73;;;2.00;99.90;;;;;;5022177;28;20491;-77
2022/12/12 02:16:41;;;;;;;29.35;15.10;;;0.70;99.90;;;;;;5022460;28;20180;-76
2022/12/12 02:19:09;;;;;;;30.67;14.43;;;0.70;99.90;;;;;;5021764;28;20044;-79
2022/12/12 02:21:45;;;;;;;26.38;13.98;;;0.70;99.90;;;;;;5023441;28;20065;-77
2022/12/12 02:24:41;;;;;;;26.17;13.55;;;0.70;99.90;;;;;;5024438;28;20045;-77
2022/12/12 02:27:24;;;;;;;29.23;14.57;;;0.70;99.90;;;;;;5020493;28;20064;-76
2022/12/12 02:30:05;;;;;;;;;;;0.70;99.90;;;;;;5023183;28;20042;-76
2022/12/12 02:33:18;;;;;;;28.35;14.10;;;0.70;99.90;;;;;;5020441;28;19956;-77
2022/12/12 02:36:06;;;;;;;28.00;13.73;;;0.70;99.90;;;;;;5001504;28;20574;-77
2022/12/12 02:38:58;;;;;;;27.90;14.20;;;0.70;99.90;;;;;;5015697;28;20050;-77
2022/12/12 02:41:52;;;;;;;26.23;13.52;;;0.70;99.90;;;;;;5007606;28;20049;-76
2022/12/12 02:44:56;;;;;;;28.08;14.10;;;0.70;99.90;;;;;;5020728;28;20041;-76
2022/12/12 02:47:25;;;;;;;;;;;0.70;99.90;;;;;;5000596;28;20380;-76
2022/12/12 02:49:57;;;;;;;26.38;12.35;;;0.70;99.90;;;;;;5020318;28;19916;-76
2022/12/12 02:52:23;;;;;;;27.15;13.52;;;0.70;99.90;;;;;;5019204;28;20033;-77
2022/12/12 02:54:49;;;;;;;26.42;13.32;;;0.70;99.90;;;;;;4987429;28;20048;-78
2022/12/12 02:57:18;;;;;;;26.23;13.13;;;0.70;99.90;;;;;;5018191;28;20495;-77
2022/12/12 02:59:59;;;;;;;25.63;13.43;;;0.60;99.90;;;;;;5021761;28;20510;-77
2022/12/12 03:02:40;;;;;;;27.48;13.70;;;0.70;99.90;;;;;;5023174;28;20584;-77
2022/12/12 03:09:00;;;;;;;28.73;14.98;;;0.70;99.90;;;;;;5021381;28;20521;-77
2022/12/12 03:11:54;;;;;;;25.10;12.27;;;0.70;99.90;;;;;;5021029;28;20045;-76
2022/12/12 03:14:37;;;;;;;25.27;12.82;;;0.70;99.90;;;;;;5002142;28;20121;-76
2022/12/12 03:17:06;;;;;;;25.77;13.73;;;0.70;99.90;;;;;;5002593;28;20139;-77
2022/12/12 03:19:38;;;;;;;28.13;13.20;;;0.90;99.90;;;;;;5022526;28;20495;-76
2022/12/12 03:22:29;;;;;;;26.50;13.32;;;0.60;99.90;;;;;;5035418;28;20384;-76
2022/12/12 03:25:19;;;;;;;26.52;14.15;;;0.70;99.90;;;;;;5040629;28;20316;-77
2022/12/12 03:27:53;;;;;;;26.13;13.15;;;0.70;99.90;;;;;;5022240;28;20072;-76
2022/12/12 03:30:19;;;;;;;28.92;14.20;;;0.70;99.90;;;;;;5020566;28;20041;-77
2022/12/12 03:32:55;;;;;;;28.80;14.93;;;1.00;99.90;;;;;;5040706;28;20048;-76
2022/12/12 03:35:37;;;;;;;29.25;15.23;;;2.00;99.90;;;;;;5040446;28;20552;-76
2022/12/12 03:38:09;;;;;;;29.17;14.95;;;0.70;99.90;;;;;;5025218;28;20041;-77
2022/12/12 03:40:42;;;;;;;31.00;14.40;;;0.70;99.90;;;;;;5027294;28;20068;-76
2022/12/12 03:43:13;;;;;;;31.48;15.18;;;0.70;99.90;;;;;;5008862;28;20136;-77
2022/12/12 03:46:02;;;;;;;27.33;14.35;;;1.30;99.90;;;;;;5037001;28;20033;-76
2022/12/12 03:48:32;;;;;;;29.50;14.98;;;0.70;99.90;;;;;;5042189;28;20410;-77
2022/12/12 03:51:06;;;;;;;28.20;13.73;;;0.70;99.90;;;;;;5005821;28;20660;-76
2022/12/12 03:53:51;;;;;;;29.08;13.82;;;0.70;99.90;;;;;;5025556;28;20044;-77
2022/12/12 03:56:26;;;;;;;27.50;14.07;;;0.60;99.90;;;;;;5022753;28;20160;-77
2022/12/12 03:58:58;;;;;;;30.23;14.95;;;0.60;99.90;;;;;;5025451;28;20055;-76
2022/12/12 04:01:34;;;;;;;29.77;14.40;;;0.60;99.90;;;;;;5024434;28;20044;-77
2022/12/12 04:04:08;;;;;;;28.92;14.68;;;1.10;99.90;;;;;;5009523;28;20073;-77
2022/12/12 04:06:36;;;;;;;26.70;14.65;;;;;;;;;;5042760;28;20112;-78
2022/12/12 04:15:08;;;;;;;27.75;13.27;;;0.70;99.90;;;;;;5021426;28;20045;-77
2022/12/12 04:17:49;;;;;;;27.00;13.68;;;0.60;99.90;;;;;;5004034;28;20128;-76
2022/12/12 04:23:19;;;;;;;25.30;13.10;;;0.60;99.90;;;;;;5043060;28;20072;-77
2022/12/12 04:29:11;;;;;;;28.20;14.05;;;0.60;99.90;;;;;;5027391;28;20049;-76
2022/12/12 04:31:53;;;;;;;28.65;14.35;;;0.60;99.90;;;;;;5029402;28;20232;-77
2022/12/12 04:34:34;;;;;;;27.25;14.25;;;0.60;99.90;;;;;;5008429;28;20384;-76
2022/12/12 04:37:04;;;;;;;27.52;14.30;;;0.60;99.90;;;;;;5029730;28;20037;-77
2022/12/12 04:39:31;;;;;;;26.35;13.27;;;0.70;99.90;;;;;;5044225;28;20268;-76
2022/12/12 04:41:59;;;;;;;26.27;13.90;;;0.90;99.90;;;;;;5030236;28;20044;-76
2022/12/12 04:44:29;;;;;;;25.58;13.65;;;1.80;99.90;;;;;;5012689;28;20032;-77
2022/12/12 04:46:57;;;;;;;28.25;14.48;;;0.60;99.90;;;;;;5044677;28;20910;-77
2022/12/12 04:49:27;;;;;;;24.70;13.23;;;1.10;99.90;;;;;;5010377;28;20044;-76
2022/12/12 04:52:00;;;;;;;24.83;12.93;;;0.60;99.90;;;;;;5026062;28;20551;-77
2022/12/12 04:54:58;;;;;;;23.63;12.55;;;0.70;99.90;;;;;;5030360;28;20176;-77
2022/12/12 04:57:32;;;;;;;24.75;12.70;;;0.60;99.90;;;;;;5026453;28;20041;-76
2022/12/12 04:59:59;;;;;;;29.05;14.27;;;2.00;99.90;;;;;;5042532;28;20276;-76
2022/12/12 05:02:44;;;;;;;27.17;13.65;;;0.60;99.90;;;;;;5010817;28;20044;-76
2022/12/12 05:05:23;;;;;;;27.30;13.90;;;0.60;99.90;;;;;;5026396;28;20035;-76
2022/12/12 05:08:01;;;;;;;26.42;13.43;;;0.60;99.90;;;;;;5028316;28;20045;-77
2022/12/12 05:10:27;;;;;;;26.77;13.10;;;0.60;99.90;;;;;;5044020;28;20490;-77
2022/12/12 05:12:58;;;;;;;23.73;13.57;;;1.00;99.90;;;;;;4992444;28;20041;-78
2022/12/12 05:15:27;;;;;;;26.65;13.43;;;0.60;99.90;;;;;;5028700;28;20041;-77
2022/12/12 05:18:07;;;;;;;26.60;13.35;;;0.60;99.90;;;;;;5011642;28;20041;-76
2022/12/12 05:20:36;;;;;;;28.08;14.20;;;0.70;99.90;;;;;;5007019;28;20039;-77
2022/12/12 05:23:02;;;;;;;25.75;13.18;;;0.50;99.90;;;;;;5027308;28;20502;-77
2022/12/12 05:25:29;;;;;;;27.02;14.00;;;1.50;99.90;;;;;;5027152;28;20111;-76
2022/12/12 05:27:54;;;;;;;26.45;13.68;;;0.60;99.90;;;;;;5006910;28;20064;-77
2022/12/12 05:30:21;;;;;;;27.38;13.38;;;0.60;99.90;;;;;;5026305;28;20568;-76
2022/12/12 05:32:46;;;;;;;26.33;13.27;;;0.70;99.90;;;;;;5025919;28;20041;-76
2022/12/12 05:35:12;;;;;;;27.33;14.23;;;0.60;99.90;;;;;;5044305;28;20040;-77
2022/12/12 05:37:38;;;;;;;25.88;13.55;;;0.60;99.90;;;;;;5025500;28;20403;-76
2022/12/12 05:40:07;;;;;;;24.40;13.00;;;0.90;99.90;;;;;;5041989;28;20103;-77
2022/12/12 05:42:33;;;;;;;26.42;13.43;;;1.00;99.90;;;;;;5042313;28;20041;-77
2022/12/12 05:44:59;;;;;;;24.70;12.57;;;0.60;99.90;;;;;;5041891;28;20131;-78
2022/12/12 05:47:25;;;;;;;25.38;12.98;;;0.80;99.90;;;;;;5042977;28;20116;-77
2022/12/12 05:49:51;;;;;;;25.55;12.45;;;1.40;99.90;;;;;;5021251;28;20129;-77
2022/12/12 05:52:20;;;;;;;24.17;12.40;;;0.60;99.90;;;;;;5009079;28;20043;-77
2022/12/12 05:54:45;;;;;;;25.40;13.02;;;2.00;99.90;;;;;;5007423;28;20396;-77
2022/12/12 05:57:11;;;;;;;26.55;13.00;;;0.60;99.90;;;;;;5024111;28;20073;-77
2022/12/12 05:59:37;;;;;;;21.90;11.98;;;0.70;99.90;;;;;;5025033;28;20056;-77
2022/12/12 06:02:03;;;;;;;26.17;12.93;;;0.90;99.90;;;;;;5028617;28;20084;-77
2022/12/12 06:04:28;;;;;;;24.73;12.73;;;0.50;99.90;;;;;;5042842;28;20455;-77
2022/12/12 06:06:54;;;;;;;24.20;13.07;;;0.50;99.90;;;;;;5017790;28;20041;-76
2022/12/12 06:09:20;;;;;;;25.33;12.35;;;0.50;99.90;;;;;;5021666;28;20191;-78
2022/12/12 06:11:46;;;;;;;22.58;11.60;;;0.50;99.90;;;;;;5042500;28;20067;-76
2022/12/12 06:14:11;;;;;;;27.48;13.20;;;1.40;99.90;;;;;;4994351;28;20040;-77
2022/12/12 06:16:37;;;;;;;23.00;11.85;;;0.50;99.90;;;;;;5013315;28;20048;-78
2022/12/12 06:19:06;;;;;;;25.90;13.50;;;0.60;99.90;;;;;;4999322;28;20049;-77
2022/12/12 06:21:35;;;;;;;23.67;11.95;;;0.50;99.90;;;;;;5042835;28;20070;-77
2022/12/12 06:24:01;;;;;;;22.70;11.50;;;0.70;99.90;;;;;;5022140;28;20044;-77
2022/12/12 06:26:26;;;;;;;23.38;12.20;;;0.50;99.90;;;;;;5009173;28;20452;-76
2022/12/12 06:28:52;;;;;;;24.17;12.63;;;0.80;99.90;;;;;;5006444;28;20052;-77
2022/12/12 06:31:18;;;;;;;24.95;12.32;;;0.40;99.90;;;;;;5019397;28;20060;-77
2022/12/12 06:33:44;;;;;;;24.52;12.35;;;0.30;99.90;;;;;;5039563;28;20032;-77
2022/12/12 06:36:21;;;;;;;23.98;12.98;;;0.40;99.90;;;;;;5019390;28;20119;-76
2022/12/12 06:38:47;;;;;;;21.95;11.52;;;0.40;99.90;;;;;;5022508;28;20048;-77
2022/12/12 06:41:13;;;;;;;23.75;12.23;;;0.40;99.90;;;;;;4995614;28;20410;-78
2022/12/12 06:43:39;;;;;;;25.30;12.43;;;0.40;99.90;;;;;;5008039;28;20079;-76
2022/12/12 06:46:07;;;;;;;23.85;12.40;;;0.40;99.90;;;;;;5042495;28;20068;-77
2022/12/12 06:48:34;;;;;;;23.15;12.20;;;0.80;99.90;;;;;;5010264;28;20033;-77
2022/12/12 06:51:05;;;;;;;24.45;12.90;;;0.50;99.90;;;;;;5025223;28;20417;-77
2022/12/12 06:53:31;;;;;;;24.48;12.60;;;0.40;99.90;;;;;;5042298;28;20376;-76
2022/12/12 06:55:57;;;;;;;24.58;12.80;;;0.40;99.90;;;;;;5046545;28;20044;-77
2022/12/12 06:58:23;;;;;;;24.15;12.68;;;0.30;99.90;;;;;;5028702;28;20045;-77
2022/12/12 07:00:55;;;;;;;24.92;12.30;;;0.50;99.90;;;;;;5010531;28;20037;-77
2022/12/12 07:03:23;;;;;;;23.58;12.60;;;0.50;99.90;;;;;;5043490;28;20636;-77
2022/12/12 07:05:49;;;;;;;23.92;12.60;;;;;;;;;;4985545;28;20047;-77
2022/12/12 07:08:15;;;;;;;24.83;13.00;;;0.40;99.90;;;;;;5039639;28;20037;-77
2022/12/12 07:10:43;;;;;;;25.35;12.70;;;0.50;99.90;;;;;;5022783;28;20043;-77
2022/12/12 07:13:09;;;;;;;25.45;12.68;;;0.50;99.90;;;;;;5025596;28;20052;-76
2022/12/12 07:15:48;;;;;;;25.35;12.95;;;2.40;99.90;;;;;;5023013;28;20055;-77
2022/12/12 07:18:18;;;;;;;24.27;13.07;;;0.50;99.90;;;;;;5041566;28;20045;-78
2022/12/12 07:20:46;;;;;;;26.10;13.65;;;0.50;99.90;;;;;;5039732;28;20037;-82
2022/12/12 07:23:12;;;;;;;25.55;12.57;;;0.50;99.90;;;;;;5003824;28;20052;-77
2022/12/12 07:25:43;;;;;;;25.20;12.30;;;0.50;99.90;;;;;;5018415;28;21373;-77
2022/12/12 07:28:10;;;;;;;23.90;12.85;;;0.50;99.90;;;;;;5001648;28;20041;-77
2022/12/12 07:30:43;;;;;;;24.98;13.23;;;0.50;99.90;;;;;;5021242;28;20486;-77
2022/12/12 07:33:11;;;;;;;25.92;13.48;;;0.50;99.90;;;;;;5020003;28;20531;-78
2022/12/12 07:35:40;;;;;;;23.98;12.73;;;0.50;99.90;;;;;;5022601;28;20061;-76
2022/12/12 07:38:10;;;;;;;25.33;13.35;;;0.50;99.90;;;;;;5016346;28;20073;-77
2022/12/12 07:40:36;;;;;;;25.17;12.80;;;0.50;99.90;;;;;;5017418;28;20448;-77
2022/12/12 07:43:03;;;;;;;25.55;13.32;;;1.10;99.90;;;;;;5022047;28;20041;-77
2022/12/12 07:45:29;;;;;;;23.40;12.73;;;0.50;99.90;;;;;;5008464;28;20063;-77
2022/12/12 07:47:55;;;;;;;26.17;13.68;;;0.50;99.90;;;;;;5023609;28;20414;-76
2022/12/12 07:50:21;;;;;;;23.73;12.30;;;0.50;99.90;;;;;;5020255;28;20049;-76
2022/12/12 07:52:47;;;;;;;27.38;13.75;;;0.50;99.90;;;;;;5022884;28;20100;-78
2022/12/12 07:55:19;;;;;;;25.83;13.68;;;0.50;99.90;;;;;;5000500;28;20060;-77
2022/12/12 07:57:44;;;;;;;26.10;13.13;;;0.60;99.90;;;;;;5019992;28;20034;-77
2022/12/12 08:00:13;;;;;;;27.33;13.07;;;-0.30;99.90;;;;;;5001236;28;20415;-78
2022/12/12 08:02:39;;;;;;;24.63;13.05;;;0.50;99.90;;;;;;5001084;28;20052;-77
2022/12/12 08:05:06;;;;;;;25.77;13.80;;;2.10;99.90;;;;;;5026665;28;21263;-76
2022/12/12 08:07:31;;;;;;;25.55;13.52;;;0.50;99.90;;;;;;5021941;28;20037;-76
2022/12/12 08:09:57;;;;;;;24.00;11.85;;;0.60;99.90;;;;;;5003084;28;20033;-77
2022/12/12 08:12:23;;;;;;;25.23;13.82;;;0.60;99.90;;;;;;4986576;28;20041;-77
2022/12/12 08:14:51;;;;;;;24.42;13.10;;;0.60;99.90;;;;;;5024502;28;20034;-77
2022/12/12 08:17:17;;;;;;;24.30;12.23;;;0.60;99.90;;;;;;5009055;28;20042;-77
2022/12/12 08:19:43;;;;;;;23.95;12.88;;;0.60;99.90;;;;;;5018706;28;20091;-77
2022/12/12 08:22:09;;;;;;;23.67;12.60;;;0.60;99.90;;;;;;5025631;28;20054;-77
2022/12/12 08:24:37;;;;;;;24.83;13.23;;;0.60;99.90;;;;;;5047746;28;20124;-79
2022/12/12 08:27:06;;;;;;;24.75;12.88;;;0.60;99.90;;;;;;5025825;28;20040;-78
2022/12/12 08:29:32;;;;;;;23.77;12.65;;;0.70;99.90;;;;;;5029688;28;20056;-76
2022/12/12 08:32:03;;;;;;;24.15;12.43;;;0.70;99.90;;;;;;5025953;28;20037;-77
2022/12/12 08:34:29;;;;;;;24.50;12.85;;;0.70;99.90;;;;;;4996062;28;20041;-77
2022/12/12 08:36:58;;;;;;;24.23;13.57;;;1.00;99.90;;;;;;5009312;28;20072;-77
2022/12/12 08:39:24;;;;;;;22.88;12.23;;;0.70;99.90;;;;;;5040545;28;20136;-76
2022/12/12 08:41:52;;;;;;;22.38;12.63;;;0.70;99.90;;;;;;5025288;28;20159;-76
2022/12/12 08:44:22;;;;;;;24.75;12.65;;;0.80;99.90;;;;;;5024661;28;20041;-77
2022/12/12 08:46:51;;;;;;;21.88;11.95;;;2.50;99.90;;;;;;5011107;28;20406;-76
2022/12/12 08:49:16;;;;;;;24.08;12.98;;;0.20;99.90;;;;;;5028904;28;21374;-77
2022/12/12 08:51:45;;;;;;;21.98;12.30;;;1.80;99.90;;;;;;4994395;28;20494;-77
2022/12/12 08:54:17;;;;;;;23.13;12.10;;;0.80;99.90;;;;;;5011319;28;20045;-77
2022/12/12 08:56:43;;;;;;;25.70;12.93;;;0.80;99.90;;;;;;5029746;28;20487;-78
2022/12/12 08:59:09;;;;;;;24.38;13.18;;;0.90;99.90;;;;;;5023905;28;20080;-77
2022/12/12 09:01:35;;;;;;;26.33;12.82;;;0.90;99.90;;;;;;5009165;28;20033;-76
2022/12/12 09:04:03;;;;;;;23.08;12.05;;;0.10;99.90;;;;;;5043802;28;20044;-77
2022/12/12 09:06:35;;;;;;;22.88;12.57;;;0.90;99.90;;;;;;5010997;28;20091;-76
2022/12/12 09:09:04;;;;;;;23.70;12.57;;;1.00;99.90;;;;;;5026558;28;20049;-78
2022/12/12 09:11:42;;;;;;;20.25;11.88;;;-0.70;99.90;;;;;;5025083;28;20082;-77
2022/12/12 09:14:16;;;;;;;21.70;11.23;;;2.00;99.90;;;;;;5007192;28;20048;-78
2022/12/12 09:16:45;;;;;;;22.17;11.77;;;1.00;99.90;;;;;;5024723;28;20102;-76
2022/12/12 09:19:11;;;;;;;23.52;12.25;;;2.30;99.90;;;;;;5011991;28;20045;-78
2022/12/12 09:21:36;;;;;;;22.30;12.38;;;2.50;99.90;;;;;;5035177;28;20067;-78
2022/12/12 09:24:02;;;;;;;22.20;12.05;;;;;;;;;;4994016;28;20049;-77
2022/12/12 09:26:31;;;;;;;22.00;11.63;;;2.70;99.90;;;;;;5045509;28;20649;-77
2022/12/12 09:28:57;;;;;;;23.25;11.75;;;1.10;99.90;;;;;;5009983;28;20045;-77
2022/12/12 09:31:23;;;;;;;23.23;11.93;;;1.10;99.90;;;;;;5024543;28;20051;-77
2022/12/12 09:33:52;;;;;;;22.05;11.80;;;1.20;99.90;;;;;;5036315;28;20044;-78
2022/12/12 09:36:18;;;;;;;23.50;12.20;;;1.90;99.90;;;;;;5028753;28;20079;-77
2022/12/12 09:38:47;;;;;;;20.67;11.82;;;1.20;99.90;;;;;;5026538;28;20317;-78
2022/12/12 09:41:16;;;;;;;22.52;12.02;;;1.20;99.90;;;;;;5023401;28;20080;-76
2022/12/12 09:43:50;;;;;;;21.58;12.00;;;1.70;99.90;;;;;;5010161;28;20139;-77
2022/12/12 09:46:36;;;;;;;21.25;11.88;;;1.20;99.90;;;;;;5040288;28;20103;-78
2022/12/12 09:49:12;;;;;;;20.52;10.88;;;1.20;99.90;;;;;;5044506;28;20045;-78
2022/12/12 09:51:39;;;;;;;20.42;10.80;;;1.30;99.90;;;;;;5028840;28;20518;-77
2022/12/12 09:54:05;;;;;;;20.67;11.40;;;1.30;99.90;;;;;;5012092;28;20069;-77
2022/12/12 09:56:50;;;;;;;21.58;11.55;;;1.40;99.90;;;;;;5026985;28;20053;-77
2022/12/12 09:59:58;;;;;;;20.40;11.30;;;1.40;99.90;;;;;;5049576;28;20075;-77
2022/12/12 10:03:06;;;;;;;22.75;12.02;;;1.40;99.90;;;;;;5016997;28;20049;-77
2022/12/12 10:06:04;;;;;;;21.58;11.63;;;1.40;99.90;;;;;;5007511;28;20171;-77
2022/12/12 10:08:42;;;;;;;19.70;10.75;;;1.40;99.90;;;;;;5027979;28;20495;-77
2022/12/12 10:14:01;;;;;;;18.83;10.10;;;1.50;99.90;;;;;;5024183;28;20166;-76
2022/12/12 10:16:30;;;;;;;21.20;11.57;;;1.50;99.90;;;;;;5021429;28;20044;-78
2022/12/12 10:19:07;;;;;;;21.98;11.40;;;1.50;99.90;;;;;;5007904;28;20094;-77
2022/12/12 10:21:36;;;;;;;20.73;10.80;;;1.60;99.90;;;;;;5027684;28;20055;-77
2022/12/12 10:24:26;;;;;;;19.52;11.00;;;1.60;99.90;;;;;;5018437;28;20068;-77
2022/12/12 10:26:53;;;;;;;21.35;11.70;;;1.60;99.90;;;;;;5018414;28;20140;-76
2022/12/12 10:29:21;;;;;;;20.25;11.68;;;1.70;99.90;;;;;;5019986;28;20529;-77
2022/12/12 10:32:05;;;;;;;20.50;11.57;;;1.70;99.90;;;;;;5023545;28;20041;-77
2022/12/12 10:35:14;;;;;;;21.17;11.10;;;1.70;99.90;;;;;;5023088;28;20045;-77
2022/12/12 10:38:13;;;;;;;20.95;10.77;;;1.70;99.90;;;;;;5017527;28;20060;-78
2022/12/12 10:40:57;;;;;;;21.65;11.35;;;1.70;99.90;;;;;;5024816;28;20046;-77
2022/12/12 10:43:35;;;;;;;21.60;11.30;;;1.70;99.90;;;;;;5018204;28;20387;-78
2022/12/12 10:46:22;;;;;;;20.90;11.45;;;0.70;99.90;;;;;;5000343;28;20534;-76
2022/12/12 10:48:48;;;;;;;18.95;10.63;;;1.70;99.90;;;;;;4999542;28;20438;-77
2022/12/12 10:51:17;;;;;;;21.98;12.00;;;2.10;99.90;;;;;;5001997;28;20041;-79
2022/12/12 10:53:43;;;;;;;20.65;11.13;;;1.70;99.90;;;;;;5007429;28;20660;-78
2022/12/12 10:56:17;;;;;;;20.92;11.40;;;2.30;99.90;;;;;;5019519;28;20387;-77
2022/12/12 10:58:50;;;;;;;19.77;11.13;;;3.20;99.90;;;;;;5018020;28;20049;-77
2022/12/12 11:01:24;;;;;;;19.95;11.48;;;2.90;99.90;;;;;;5019834;28;20068;-77
2022/12/12 11:03:56;;;;;;;18.42;10.13;;;1.80;99.90;;;;;;5003288;28;20419;-76
2022/12/12 11:06:36;;;;;;;20.17;10.93;;;1.80;99.90;;;;;;5023768;28;20452;-77
2022/12/12 11:09:31;;;;;;;19.88;10.52;;;1.80;99.90;;;;;;5018488;28;20044;-76
2022/12/12 11:12:02;;;;;;;20.80;11.70;;;2.20;99.90;;;;;;4981163;28;20516;-77
2022/12/12 11:14:34;;;;;;;19.83;10.93;;;2.00;99.90;;;;;;5020652;28;20138;-77
2022/12/12 11:17:00;;;;;;;20.83;11.10;;;2.90;99.90;;;;;;5012671;28;20128;-78
2022/12/12 11:19:37;;;;;;;21.42;11.63;;;2.00;99.90;;;;;;4998774;28;20379;-77
2022/12/12 11:22:03;;;;;;;21.83;11.30;;;2.00;99.90;;;;;;5022887;28;20037;-77
2022/12/12 11:24:31;;;;;;;21.95;12.10;;;3.10;99.90;;;;;;5025398;28;20661;-77
2022/12/12 11:26:59;;;;;;;22.63;12.57;;;1.90;99.90;;;;;;5022686;28;20281;-77
2022/12/12 11:29:42;;;;;;;22.50;12.95;;;1.90;99.90;;;;;;5026982;28;20454;-79
2022/12/12 11:32:23;;;;;;;25.00;14.05;;;1.90;99.90;;;;;;5023066;28;20128;-77
2022/12/12 11:34:55;;;;;;;26.08;14.15;;;2.00;99.90;;;;;;5016664;28;20041;-77
2022/12/12 11:37:25;;;;;;;25.00;13.63;;;2.00;99.90;;;;;;5025415;28;20040;-77
2022/12/12 11:39:53;;;;;;;24.75;13.75;;;1.90;99.90;;;;;;5010165;28;20491;-77
2022/12/12 11:42:32;;;;;;;25.38;14.05;;;3.40;99.90;;;;;;5046816;28;20040;-77
2022/12/12 11:45:19;;;;;;;25.17;13.80;;;2.50;99.90;;;;;;5030834;28;20133;-78
2022/12/12 11:47:46;;;;;;;25.63;15.07;;;1.90;99.90;;;;;;5010032;28;20041;-77
2022/12/12 11:50:27;;;;;;;26.23;14.90;;;2.00;99.90;;;;;;5027162;28;20177;-78
2022/12/12 11:52:59;;;;;;;27.63;14.95;;;2.00;99.90;;;;;;5009870;28;20029;-79
2022/12/12 11:56:00;;;;;;;28.00;14.03;;;2.00;99.90;;;;;;5029668;28;20037;-77
2022/12/12 11:58:56;;;;;;;25.73;14.20;;;3.50;99.90;;;;;;5043590;28;20029;-77
2022/12/12 12:01:53;;;;;;;26.10;14.48;;;2.00;99.90;;;;;;5023714;28;20107;-78
2022/12/12 12:04:46;;;;;;;26.27;14.30;;;2.10;99.90;;;;;;5046103;28;20461;-77
2022/12/12 12:07:43;;;;;;;25.05;14.13;;;2.10;99.90;;;;;;5046336;28;20041;-78
2022/12/12 12:10:51;;;;;;;27.58;14.88;;;2.10;99.90;;;;;;5008147;28;20057;-78
2022/12/12 12:13:50;;;;;;;26.73;14.43;;;2.10;99.90;;;;;;5021194;28;20064;-77
2022/12/12 12:16:43;;;;;;;25.40;14.02;;;2.00;99.90;;;;;;5039705;28;20051;-77
2022/12/12 12:19:41;;;;;;;25.92;14.07;;;2.00;99.90;;;;;;5046126;28;20033;-77
2022/12/12 12:22:31;;;;;;;26.30;14.27;;;3.30;99.90;;;;;;5017285;28;20045;-78
2022/12/12 12:25:34;;;;;;;24.83;13.38;;;2.10;99.90;;;;;;5024478;28;20098;-77
2022/12/12 12:28:06;;;;;;;23.20;12.93;;;2.10;99.90;;;;;;5009998;28;20080;-77
2022/12/12 12:30:59;;;;;;;25.20;14.00;;;2.00;99.90;;;;;;5011682;28;20051;-77
2022/12/12 12:33:37;;;;;;;27.37;14.30;;;2.00;99.90;;;;;;5007223;28;20041;-78
2022/12/12 12:36:22;;;;;;;26.88;14.35;;;2.00;99.90;;;;;;5045280;28;20041;-77
2022/12/12 12:38:57;;;;;;;25.52;14.25;;;2.00;99.90;;;;;;5021120;28;20115;-77
2022/12/12 12:41:28;;;;;;;24.63;13.35;;;2.00;99.90;;;;;;5012452;28;20473;-77
2022/12/12 12:44:21;;;;;;;25.58;14.20;;;2.00;99.90;;;;;;5038911;28;20526;-77
2022/12/12 12:47:11;;;;;;;26.95;14.30;;;2.00;99.90;;;;;;5041941;28;20782;-77
2022/12/12 12:49:48;;;;;;;25.45;13.70;;;1.90;99.90;;;;;;5044655;28;20054;-77
2022/12/12 12:52:33;;;;;;;25.65;13.80;;;1.90;99.90;;;;;;5027580;28;20133;-77
2022/12/12 12:54:59;;;;;;;23.83;13.43;;;1.90;99.90;;;;;;5027220;28;20032;-77
2022/12/12 12:57:39;;;;;;;23.23;13.35;;;1.80;99.90;;;;;;5026246;28;20843;-77
2022/12/12 13:00:26;;;;;;;23.85;13.18;;;1.90;99.90;;;;;;5005945;28;20509;-78
2022/12/12 13:02:56;;;;;;;23.60;13.25;;;;;;;;;;5025464;28;20182;-77
2022/12/12 13:05:45;;;;;;;23.95;13.48;;;1.90;99.90;;;;;;5044421;28;20534;-77
2022/12/12 13:08:23;;;;;;;23.52;12.63;;;1.90;99.90;;;;;;5011612;28;20135;-78
2022/12/12 13:10:53;;;;;;;25.45;13.98;;;1.90;99.90;;;;;;5018113;28;20044;-77
2022/12/12 13:13:26;;;;;;;24.95;13.73;;;1.90;99.90;;;;;;5025181;28;20037;-77
2022/12/12 13:16:20;;;;;;;24.05;12.80;;;2.00;99.90;;;;;;5025625;28;20043;-78
2022/12/12 13:19:00;;;;;;;22.83;12.27;;;1.90;99.90;;;;;;5018889;28;20062;-77
2022/12/12 13:21:38;;;;;;;26.88;14.07;;;1.90;99.90;;;;;;5024746;28;20715;-78
2022/12/12 13:24:28;;;;;;;25.88;14.65;;;2.00;99.90;;;;;;5007079;28;20059;-77
2022/12/12 13:27:12;;;;;;;25.33;13.63;;;1.90;99.90;;;;;;5040011;28;20052;-77